Time;durP1;ratioP1;P1;durP2;ratioP2;P2;SDS_P1;SDS_P2;PMS_P1;PMS_P2;Temp;Humidity;BMP_temperature;BMP_pressure;BME280_temperature;BME280_humidity;BME280_pressure;Samples;Min_cycle;Max_cycle;Signal;HPM_P1;HPM_P2
2023/06/20 00:01:25;;;;;;;8.73;7.85;;;20.90;99.90;;;;;;5017762;28;20030;-73
2023/06/20 00:03:51;;;;;;;11.23;7.88;;;20.80;99.90;;;;;;5014123;28;20034;-74
2023/06/20 00:06:19;;;;;;;12.30;7.50;;;20.90;99.90;;;;;;5013538;28;20049;-74
2023/06/20 00:08:45;;;;;;;17.77;8.02;;;20.90;99.90;;;;;;5012975;28;20026;-74
2023/06/20 00:11:11;;;;;;;12.02;7.28;;;20.90;99.90;;;;;;5013821;28;20029;-74
2023/06/20 00:13:39;;;;;;;12.13;6.90;;;20.90;99.90;;;;;;5013874;28;20030;-74
2023/06/20 00:16:05;;;;;;;12.48;7.93;;;20.90;99.90;;;;;;5012390;28;20042;-74
2023/06/20 00:18:31;;;;;;;15.10;7.95;;;20.80;99.90;;;;;;5012847;28;20475;-74
2023/06/20 00:20:57;;;;;;;15.80;7.80;;;20.90;99.90;;;;;;5012067;28;20057;-74
2023/06/20 00:23:24;;;;;;;11.20;8.48;;;20.90;99.90;;;;;;5012907;28;20463;-74
2023/06/20 00:25:51;;;;;;;15.38;7.68;;;20.90;99.90;;;;;;5013634;28;20030;-74
2023/06/20 00:28:17;;;;;;;12.32;7.97;;;20.80;99.90;;;;;;5012672;28;20033;-74
2023/06/20 00:30:43;;;;;;;13.55;8.95;;;20.90;99.90;;;;;;5012978;28;20033;-74
2023/06/20 00:33:10;;;;;;;17.38;9.60;;;20.90;99.90;;;;;;5013507;28;20036;-74
2023/06/20 00:35:37;;;;;;;13.65;9.20;;;20.90;99.90;;;;;;5012857;28;20025;-74
2023/06/20 00:38:03;;;;;;;13.38;9.18;;;20.90;99.90;;;;;;5045309;28;20038;-74
2023/06/20 00:40:29;;;;;;;15.70;9.50;;;21.00;99.90;;;;;;5013231;28;20398;-75
2023/06/20 00:42:55;;;;;;;14.93;10.65;;;21.10;99.90;;;;;;5013534;28;20038;-74
2023/06/20 00:45:32;;;;;;;18.15;11.73;;;21.10;99.90;;;;;;5012739;28;20041;-74
2023/06/20 00:48:00;;;;;;;17.77;12.93;;;21.20;99.90;;;;;;5011914;28;20037;-74
2023/06/20 00:50:27;;;;;;;16.27;12.38;;;21.10;99.90;;;;;;5011752;28;20479;-74
2023/06/20 00:53:00;;;;;;;16.48;12.82;;;21.20;99.90;;;;;;5013201;28;20030;-74
2023/06/20 00:55:31;;;;;;;18.83;13.13;;;21.30;99.90;;;;;;5011938;28;20030;-74
2023/06/20 00:57:58;;;;;;;18.23;15.27;;;21.40;99.90;;;;;;5012134;28;20041;-74
2023/06/20 01:00:25;;;;;;;20.67;14.52;;;21.30;99.90;;;;;;5017471;28;20040;-74
2023/06/20 01:03:03;;;;;;;19.98;12.65;;;21.40;99.90;;;;;;5011998;28;20033;-74
2023/06/20 01:05:30;;;;;;;15.18;13.68;;;21.40;99.90;;;;;;5011241;28;20033;-74
2023/06/20 01:08:14;;;;;;;18.40;15.68;;;21.50;99.90;;;;;;5011878;28;20041;-74
2023/06/20 01:10:45;;;;;;;15.80;12.10;;;21.50;99.90;;;;;;5012865;28;20034;-74
2023/06/20 01:13:46;;;;;;;17.25;10.13;;;21.60;99.90;;;;;;5011894;28;20048;-74
2023/06/20 01:16:57;;;;;;;18.33;11.13;;;21.70;99.90;;;;;;5011150;28;20038;-74
2023/06/20 01:19:31;;;;;;;17.90;9.27;;;21.70;99.90;;;;;;4990588;28;20042;-74
2023/06/20 01:22:00;;;;;;;14.20;9.88;;;21.70;99.90;;;;;;4990909;28;20042;-74
2023/06/20 01:24:37;;;;;;;14.25;9.80;;;21.60;99.90;;;;;;4974892;28;20133;-74
2023/06/20 01:27:35;;;;;;;18.13;9.30;;;21.40;99.90;;;;;;4990843;28;20529;-74
2023/06/20 01:30:12;;;;;;;20.85;7.68;;;21.00;99.90;;;;;;4974537;28;20053;-74
2023/06/20 01:32:42;;;;;;;17.45;7.40;;;20.80;99.90;;;;;;4958290;28;20038;-74
2023/06/20 01:35:09;;;;;;;18.15;8.45;;;20.80;99.90;;;;;;4974818;28;20038;-74
2023/06/20 01:37:37;;;;;;;15.52;8.25;;;20.70;99.90;;;;;;4973634;28;20034;-74
2023/06/20 01:40:05;;;;;;;17.80;8.77;;;20.80;99.90;;;;;;4974868;28;20045;-74
2023/06/20 01:42:31;;;;;;;13.23;9.05;;;21.00;99.90;;;;;;4990618;28;20042;-74
2023/06/20 01:44:58;;;;;;;20.35;11.18;;;21.10;99.90;;;;;;4974775;28;20049;-74
2023/06/20 01:47:24;;;;;;;18.63;11.82;;;21.20;99.90;;;;;;4973563;28;20037;-75
2023/06/20 01:49:53;;;;;;;13.70;8.43;;;21.20;99.90;;;;;;4990515;28;20046;-74
2023/06/20 01:52:20;;;;;;;17.23;8.80;;;21.00;99.90;;;;;;4976446;28;20455;-74
2023/06/20 01:54:46;;;;;;;16.52;8.45;;;20.90;99.90;;;;;;4974600;28;20038;-74
2023/06/20 01:57:16;;;;;;;13.32;8.73;;;20.80;99.90;;;;;;4992482;28;20038;-74
2023/06/20 01:59:44;;;;;;;20.92;9.23;;;20.90;99.90;;;;;;5013035;28;20487;-74
2023/06/20 02:02:10;;;;;;;16.48;8.38;;;20.70;99.90;;;;;;5003924;28;20387;-74
2023/06/20 02:04:36;;;;;;;15.48;8.48;;;20.60;99.90;;;;;;5018554;28;20038;-74
2023/06/20 02:07:03;;;;;;;18.88;9.30;;;20.60;99.90;;;;;;5010118;28;20052;-74
2023/06/20 02:09:29;;;;;;;21.17;8.43;;;20.60;99.90;;;;;;5011027;28;20038;-74
2023/06/20 02:11:55;;;;;;;20.48;8.98;;;20.60;99.90;;;;;;5026037;28;20379;-74
2023/06/20 02:14:21;;;;;;;13.82;9.30;;;20.60;99.90;;;;;;5023171;28;20042;-74
2023/06/20 02:16:48;;;;;;;17.45;9.13;;;20.70;99.90;;;;;;5018929;28;20387;-74
2023/06/20 02:19:14;;;;;;;20.15;9.30;;;20.80;99.90;;;;;;5009830;28;20054;-74
2023/06/20 02:21:40;;;;;;;15.82;8.93;;;21.00;99.90;;;;;;4993535;28;20487;-74
2023/06/20 02:24:07;;;;;;;15.70;9.32;;;21.10;99.90;;;;;;5026112;28;20041;-74
2023/06/20 02:26:35;;;;;;;17.92;8.80;;;21.20;99.90;;;;;;5026167;28;20034;-74
2023/06/20 02:29:03;;;;;;;16.15;8.63;;;21.30;99.90;;;;;;5009701;28;20340;-74
2023/06/20 02:31:34;;;;;;;18.45;8.85;;;21.30;99.90;;;;;;5008565;28;20034;-74
2023/06/20 02:34:03;;;;;;;16.63;10.95;;;21.30;99.90;;;;;;5009612;28;20121;-74
2023/06/20 02:36:29;;;;;;;12.55;10.18;;;21.40;99.90;;;;;;5009600;28;20018;-74
2023/06/20 02:38:56;;;;;;;19.33;10.98;;;21.40;99.90;;;;;;5043735;28;20033;-74
2023/06/20 02:41:23;;;;;;;21.25;9.90;;;21.20;99.90;;;;;;5026948;28;20041;-74
2023/06/20 02:43:49;;;;;;;19.45;10.48;;;21.00;99.90;;;;;;5043768;28;20034;-75
2023/06/20 02:46:36;;;;;;;18.77;10.40;;;20.80;99.90;;;;;;5042930;28;20044;-74
2023/06/20 02:49:05;;;;;;;21.17;9.95;;;20.80;99.90;;;;;;5015440;28;20521;-74
2023/06/20 02:51:34;;;;;;;17.40;8.45;;;20.80;99.90;;;;;;5015340;28;20034;-74
2023/06/20 02:54:12;;;;;;;18.67;9.57;;;20.70;99.90;;;;;;4998485;28;20037;-74
2023/06/20 02:56:39;;;;;;;18.90;9.57;;;20.80;99.90;;;;;;5014173;28;20390;-74
2023/06/20 02:59:05;;;;;;;18.98;9.88;;;20.90;99.90;;;;;;5014331;28;20033;-74
2023/06/20 03:01:32;;;;;;;12.63;9.38;;;20.90;99.90;;;;;;5019075;28;20046;-74
2023/06/20 03:04:00;;;;;;;17.52;9.70;;;20.70;99.90;;;;;;5014301;28;20034;-74
2023/06/20 03:06:27;;;;;;;13.73;9.32;;;20.70;99.90;;;;;;5014247;28;20041;-74
2023/06/20 03:08:54;;;;;;;20.25;9.52;;;20.60;99.90;;;;;;5014158;28;20044;-74
2023/06/20 03:11:21;;;;;;;20.25;9.68;;;20.70;99.90;;;;;;5013784;28;20025;-74
2023/06/20 03:13:47;;;;;;;22.05;9.38;;;20.90;99.90;;;;;;5015422;28;20030;-74
2023/06/20 03:16:13;;;;;;;20.60;9.73;;;21.00;99.90;;;;;;5016335;28;20064;-74
2023/06/20 03:18:39;;;;;;;18.60;9.82;;;21.10;99.90;;;;;;5023108;28;20017;-74
2023/06/20 03:21:05;;;;;;;20.70;9.50;;;21.20;99.90;;;;;;5015760;28;20064;-74
2023/06/20 03:23:32;;;;;;;23.90;10.10;;;21.30;99.90;;;;;;5056603;28;20410;-74
2023/06/20 03:25:58;;;;;;;18.55;10.75;;;21.30;99.90;;;;;;5019294;28;20037;-74
2023/06/20 03:28:25;;;;;;;23.60;10.63;;;21.30;99.90;;;;;;5034729;28;20569;-74
2023/06/20 03:30:51;;;;;;;21.08;10.07;;;21.40;99.90;;;;;;5021348;28;20061;-74
2023/06/20 03:33:17;;;;;;;16.80;10.90;;;21.40;99.90;;;;;;5013849;28;20026;-74
2023/06/20 03:35:43;;;;;;;16.25;12.10;;;21.40;99.90;;;;;;4997156;28;20030;-74
2023/06/20 03:38:11;;;;;;;15.55;11.43;;;21.40;99.90;;;;;;5014522;28;20056;-74
2023/06/20 03:40:38;;;;;;;16.25;11.25;;;21.40;99.90;;;;;;5030037;28;20042;-73
2023/06/20 03:43:04;;;;;;;13.38;12.00;;;21.40;99.90;;;;;;5013620;28;20038;-74
2023/06/20 03:45:30;;;;;;;23.02;11.93;;;21.40;99.90;;;;;;5012551;28;20030;-74
2023/06/20 03:47:56;;;;;;;25.15;11.90;;;21.40;99.90;;;;;;5014241;28;20033;-73
2023/06/20 03:50:23;;;;;;;21.60;10.40;;;21.40;99.90;;;;;;5013144;28;20479;-74
2023/06/20 03:52:49;;;;;;;17.92;12.05;;;21.50;99.90;;;;;;5014023;28;20046;-74
2023/06/20 03:55:15;;;;;;;15.13;12.20;;;21.40;99.90;;;;;;5013526;28;20471;-74
2023/06/20 03:57:41;;;;;;;17.58;10.93;;;21.50;99.90;;;;;;5013063;28;20041;-74
2023/06/20 04:00:11;;;;;;;17.42;10.35;;;21.50;99.90;;;;;;5013589;28;20038;-73
2023/06/20 04:02:41;;;;;;;13.75;10.80;;;21.50;99.90;;;;;;5013209;28;20034;-74
2023/06/20 04:05:09;;;;;;;21.42;11.13;;;21.50;99.90;;;;;;5013208;28;20037;-74
2023/06/20 04:07:35;;;;;;;22.17;11.52;;;21.40;99.90;;;;;;5012790;28;20057;-74
2023/06/20 04:10:01;;;;;;;18.13;10.63;;;21.50;99.90;;;;;;5014079;28;20034;-74
2023/06/20 04:12:27;;;;;;;23.88;12.20;;;21.40;99.90;;;;;;5013656;28;20053;-74
2023/06/20 04:14:53;;;;;;;19.13;12.95;;;21.40;99.90;;;;;;5013961;28;20463;-74
2023/06/20 04:17:19;;;;;;;14.07;12.57;;;21.40;99.90;;;;;;5012217;28;20491;-74
2023/06/20 04:19:46;;;;;;;24.23;12.80;;;21.40;99.90;;;;;;5013797;28;20379;-74
2023/06/20 04:22:12;;;;;;;17.02;12.43;;;21.40;99.90;;;;;;5013621;28;20038;-74
2023/06/20 04:24:38;;;;;;;22.63;13.43;;;21.40;99.90;;;;;;5013934;28;20018;-74
2023/06/20 04:27:04;;;;;;;24.30;13.52;;;21.40;99.90;;;;;;5012137;28;20034;-74
2023/06/20 04:29:31;;;;;;;16.65;13.60;;;21.40;99.90;;;;;;5014714;28;20038;-74
2023/06/20 04:31:57;;;;;;;17.80;13.23;;;21.40;99.90;;;;;;5017924;28;20727;-74
2023/06/20 04:34:23;;;;;;;13.52;11.15;;;21.40;99.90;;;;;;5013650;28;20030;-74
2023/06/20 04:36:50;;;;;;;23.95;10.70;;;21.50;99.90;;;;;;5013264;28;20078;-74
2023/06/20 04:39:16;;;;;;;14.95;10.52;;;21.50;99.90;;;;;;5014182;28;20052;-75
2023/06/20 04:41:43;;;;;;;15.32;9.73;;;21.50;99.90;;;;;;5013067;28;20045;-74
2023/06/20 04:44:09;;;;;;;16.23;13.43;;;21.60;99.90;;;;;;5013531;28;20037;-74
2023/06/20 04:46:35;;;;;;;13.60;10.98;;;21.60;99.90;;;;;;5012895;28;20045;-74
2023/06/20 04:49:01;;;;;;;16.88;11.57;;;21.60;99.90;;;;;;5013023;28;20052;-74
2023/06/20 04:51:27;;;;;;;13.63;12.25;;;21.60;99.90;;;;;;5013234;28;20037;-74
2023/06/20 04:53:53;;;;;;;20.55;14.35;;;21.60;99.90;;;;;;5013463;28;20041;-74
2023/06/20 04:56:20;;;;;;;15.75;14.35;;;21.60;99.90;;;;;;5011506;28;20037;-76
2023/06/20 04:58:47;;;;;;;19.05;14.32;;;21.70;99.90;;;;;;5013231;28;20411;-76
2023/06/20 05:01:16;;;;;;;16.25;12.95;;;21.60;99.90;;;;;;5012814;28;20111;-76
2023/06/20 05:03:42;;;;;;;13.68;11.25;;;21.70;99.90;;;;;;5013627;28;20042;-76
2023/06/20 05:06:09;;;;;;;14.27;11.52;;;21.70;99.90;;;;;;5013191;28;20042;-73
2023/06/20 05:08:35;;;;;;;15.48;11.25;;;21.70;99.90;;;;;;5013084;28;20037;-74
2023/06/20 05:11:01;;;;;;;14.82;12.50;;;21.70;99.90;;;;;;5012019;28;20455;-73
2023/06/20 05:13:27;;;;;;;14.38;12.27;;;21.70;99.90;;;;;;5012944;28;20037;-73
2023/06/20 05:15:53;;;;;;;12.43;11.32;;;21.60;99.90;;;;;;5012430;28;20034;-74
2023/06/20 05:18:19;;;;;;;14.20;11.13;;;21.70;99.90;;;;;;5012946;28;20038;-74
2023/06/20 05:20:45;;;;;;;15.55;11.27;;;21.60;99.90;;;;;;5012785;28;20408;-73
2023/06/20 05:23:11;;;;;;;13.82;11.10;;;21.70;99.90;;;;;;5012915;28;20026;-74
2023/06/20 05:25:37;;;;;;;12.07;9.57;;;21.70;99.90;;;;;;5012211;28;20383;-74
2023/06/20 05:28:04;;;;;;;14.60;10.63;;;21.70;99.90;;;;;;5011460;28;20038;-76
2023/06/20 05:30:30;;;;;;;17.42;11.25;;;21.70;99.90;;;;;;5019562;28;20025;-76
2023/06/20 05:32:56;;;;;;;15.20;12.10;;;21.70;99.90;;;;;;5011384;28;20038;-76
2023/06/20 05:35:22;;;;;;;11.98;10.80;;;21.70;99.90;;;;;;5012268;28;20029;-74
2023/06/20 05:37:49;;;;;;;16.10;14.63;;;21.70;99.90;;;;;;5012722;28;20029;-74
2023/06/20 05:40:16;;;;;;;15.70;14.40;;;21.60;99.90;;;;;;5012043;28;20383;-76
2023/06/20 05:42:42;;;;;;;16.17;14.73;;;21.50;99.90;;;;;;5011512;28;20034;-74
2023/06/20 05:45:08;;;;;;;16.60;15.13;;;21.60;99.90;;;;;;5012091;28;20030;-73
2023/06/20 05:47:34;;;;;;;16.02;14.52;;;21.60;99.90;;;;;;5012286;28;20029;-74
2023/06/20 05:50:01;;;;;;;16.25;14.65;;;21.50;99.90;;;;;;5011215;28;20045;-74
2023/06/20 05:52:27;;;;;;;17.95;16.25;;;21.50;99.90;;;;;;5010946;28;20034;-74
2023/06/20 05:54:53;;;;;;;15.45;13.82;;;21.50;99.90;;;;;;5012153;28;20033;-74
2023/06/20 05:57:20;;;;;;;17.33;14.93;;;21.40;99.90;;;;;;5011104;28;20054;-74
2023/06/20 05:59:46;;;;;;;15.38;13.77;;;21.40;99.90;;;;;;5011399;28;20026;-74
2023/06/20 06:02:13;;;;;;;16.63;15.07;;;21.30;99.90;;;;;;5011632;28;20038;-74
2023/06/20 06:04:43;;;;;;;22.45;20.45;;;21.40;99.90;;;;;;5012343;28;20026;-73
2023/06/20 06:07:10;;;;;;;19.15;17.40;;;21.40;99.90;;;;;;5012205;28;20036;-74
2023/06/20 06:09:36;;;;;;;21.00;19.30;;;21.40;99.90;;;;;;5011893;28;20038;-74
2023/06/20 06:12:03;;;;;;;16.95;15.68;;;21.50;99.90;;;;;;5011938;28;20037;-74
2023/06/20 06:14:29;;;;;;;14.38;13.02;;;21.50;99.90;;;;;;5012492;28;20041;-74
2023/06/20 06:16:55;;;;;;;13.38;12.05;;;21.50;99.90;;;;;;5011613;28;20030;-74
2023/06/20 06:19:21;;;;;;;14.82;13.13;;;21.50;99.90;;;;;;5011046;28;20034;-75
2023/06/20 06:21:47;;;;;;;14.65;13.35;;;21.50;99.90;;;;;;5012833;28;20056;-76
2023/06/20 06:24:14;;;;;;;16.23;14.85;;;21.50;99.90;;;;;;5014557;28;20026;-76
2023/06/20 06:26:40;;;;;;;16.88;15.27;;;21.50;99.90;;;;;;4998418;28;20402;-76
2023/06/20 06:29:06;;;;;;;17.95;16.23;;;21.60;99.90;;;;;;5014757;28;20030;-74
2023/06/20 06:31:35;;;;;;;18.60;17.08;;;21.60;99.90;;;;;;5021648;28;20491;-73
2023/06/20 06:34:02;;;;;;;16.52;15.15;;;21.70;99.90;;;;;;5014487;28;20493;-74
2023/06/20 06:36:29;;;;;;;17.58;16.30;;;21.80;99.90;;;;;;5014563;28;20025;-73
2023/06/20 06:38:56;;;;;;;15.23;13.38;;;21.80;99.90;;;;;;5015678;28;20045;-74
2023/06/20 06:41:22;;;;;;;16.38;15.18;;;21.90;99.90;;;;;;5027539;28;20400;-73
2023/06/20 06:43:48;;;;;;;15.45;14.25;;;21.90;99.90;;;;;;4996040;28;20027;-74
2023/06/20 06:46:14;;;;;;;15.20;13.88;;;21.90;99.90;;;;;;5026876;28;20030;-74
2023/06/20 06:48:40;;;;;;;9.73;7.85;;;22.00;99.90;;;;;;4995817;28;20098;-73
2023/06/20 06:51:06;;;;;;;9.90;7.95;;;22.10;99.90;;;;;;4996164;28;20050;-73
2023/06/20 06:53:32;;;;;;;9.50;8.20;;;22.30;99.90;;;;;;5010667;28;20026;-73
2023/06/20 06:55:59;;;;;;;8.65;7.85;;;22.40;99.90;;;;;;5010899;28;20041;-73
2023/06/20 06:58:25;;;;;;;8.40;7.28;;;22.70;99.90;;;;;;4996030;28;20030;-73
2023/06/20 07:00:51;;;;;;;8.70;7.60;;;22.80;99.90;;;;;;4993883;28;20046;-73
2023/06/20 07:03:17;;;;;;;11.80;6.95;;;22.80;99.90;;;;;;5010842;28;20029;-73
2023/06/20 07:05:43;;;;;;;10.15;7.20;;;22.80;99.90;;;;;;4995536;28;20387;-73
2023/06/20 07:08:09;;;;;;;7.07;6.38;;;22.90;99.90;;;;;;5010374;28;20030;-73
2023/06/20 07:10:35;;;;;;;8.45;6.72;;;23.00;99.90;;;;;;4995463;28;20030;-73
2023/06/20 07:13:05;;;;;;;7.60;6.10;;;23.00;99.90;;;;;;5010736;28;20475;-73
2023/06/20 07:15:32;;;;;;;8.77;6.45;;;22.90;99.90;;;;;;5013116;28;20034;-73
2023/06/20 07:17:58;;;;;;;7.47;6.15;;;22.80;99.90;;;;;;5015252;28;20037;-73
2023/06/20 07:20:24;;;;;;;6.88;6.15;;;22.70;99.90;;;;;;5014707;28;20026;-74
2023/06/20 07:22:50;;;;;;;6.53;5.93;;;22.60;99.90;;;;;;5014685;28;20034;-74
2023/06/20 07:25:19;;;;;;;6.68;6.07;;;22.60;99.90;;;;;;5013491;28;20025;-72
2023/06/20 07:27:45;;;;;;;9.85;5.82;;;22.50;99.90;;;;;;5014984;28;20356;-76
2023/06/20 07:30:11;;;;;;;7.72;5.53;;;22.60;99.90;;;;;;5012957;28;20629;-76
2023/06/20 07:32:37;;;;;;;7.30;6.60;;;22.70;99.90;;;;;;4994801;28;20042;-75
2023/06/20 07:35:03;;;;;;;6.95;6.10;;;22.80;99.90;;;;;;4995178;28;20082;-75
2023/06/20 07:37:30;;;;;;;6.60;6.00;;;22.80;99.90;;;;;;4995346;28;20036;-76
2023/06/20 07:39:56;;;;;;;8.88;5.85;;;22.90;99.90;;;;;;5010252;28;20034;-76
2023/06/20 07:42:22;;;;;;;9.02;6.32;;;23.00;99.90;;;;;;4994896;28;20034;-76
2023/06/20 07:44:48;;;;;;;8.13;7.43;;;23.10;99.90;;;;;;4995084;28;20026;-76
2023/06/20 07:47:14;;;;;;;7.60;6.85;;;23.20;99.90;;;;;;5009950;28;20061;-75
2023/06/20 07:49:40;;;;;;;9.48;8.45;;;23.30;99.90;;;;;;4994717;28;20041;-76
2023/06/20 07:52:06;;;;;;;9.10;8.40;;;23.40;99.90;;;;;;5010015;28;20038;-74
2023/06/20 07:54:32;;;;;;;9.23;7.50;;;23.60;99.90;;;;;;5014545;28;20026;-73
2023/06/20 07:56:59;;;;;;;8.93;8.02;;;23.80;99.90;;;;;;5014002;28;20040;-76
2023/06/20 07:59:25;;;;;;;9.73;8.50;;;23.80;99.90;;;;;;5013082;28;20022;-75
2023/06/20 08:01:51;;;;;;;9.20;8.40;;;23.80;99.90;;;;;;5013326;28;20050;-76
2023/06/20 08:04:17;;;;;;;9.38;8.43;;;23.90;99.90;;;;;;5013976;28;20088;-76
2023/06/20 08:06:43;;;;;;;9.13;8.32;;;23.90;99.90;;;;;;5012630;28;20030;-75
2023/06/20 08:09:09;;;;;;;9.10;8.20;;;24.00;99.90;;;;;;5014269;28;20022;-76
2023/06/20 08:11:35;;;;;;;10.25;8.95;;;24.00;99.90;;;;;;5013807;28;20038;-75
2023/06/20 08:14:01;;;;;;;9.98;9.15;;;24.00;99.90;;;;;;5014030;28;20030;-76
2023/06/20 08:16:27;;;;;;;10.55;9.45;;;23.90;99.90;;;;;;5013339;28;20514;-76
2023/06/20 08:18:53;;;;;;;10.20;9.30;;;23.90;99.90;;;;;;5013683;28;20030;-75
2023/06/20 08:21:19;;;;;;;14.52;9.45;;;23.90;99.90;;;;;;5013703;28;20495;-75
2023/06/20 08:23:45;;;;;;;10.38;9.48;;;23.80;99.90;;;;;;5013758;28;20034;-76
2023/06/20 08:26:11;;;;;;;10.20;9.20;;;23.80;99.90;;;;;;5013310;28;20045;-76
2023/06/20 08:28:38;;;;;;;10.55;9.55;;;23.70;99.90;;;;;;5012605;28;20038;-76
2023/06/20 08:31:04;;;;;;;10.02;9.02;;;23.70;99.90;;;;;;5005737;28;20039;-76
2023/06/20 08:33:30;;;;;;;10.50;9.45;;;23.70;99.90;;;;;;5009022;28;20022;-76
2023/06/20 08:35:56;;;;;;;12.30;9.27;;;23.70;99.90;;;;;;4991413;28;20049;-75
2023/06/20 08:38:23;;;;;;;11.27;9.77;;;23.70;99.90;;;;;;5009043;28;20038;-76
2023/06/20 08:40:49;;;;;;;11.20;8.70;;;23.80;99.90;;;;;;4993668;28;20045;-76
2023/06/20 08:43:18;;;;;;;12.35;9.98;;;23.90;99.90;;;;;;4994095;28;20029;-76
2023/06/20 08:45:45;;;;;;;10.00;8.98;;;23.90;99.90;;;;;;5012793;28;20052;-76
2023/06/20 08:48:11;;;;;;;10.18;9.23;;;24.00;99.90;;;;;;5003102;28;20479;-76
2023/06/20 08:50:37;;;;;;;11.02;10.00;;;24.10;99.90;;;;;;4997176;28;20041;-75
2023/06/20 08:53:07;;;;;;;11.48;9.30;;;24.20;99.90;;;;;;5028538;28;20032;-76
2023/06/20 08:55:36;;;;;;;11.52;10.25;;;24.20;99.90;;;;;;5011759;28;20025;-75
2023/06/20 08:58:05;;;;;;;10.85;9.73;;;24.20;99.90;;;;;;5028473;28;20490;-76
2023/06/20 09:00:31;;;;;;;11.27;10.27;;;24.20;99.90;;;;;;5011217;28;20045;-76
2023/06/20 09:02:57;;;;;;;11.43;8.98;;;24.30;99.90;;;;;;5027992;28;20038;-76
2023/06/20 09:05:24;;;;;;;10.75;9.82;;;24.30;99.90;;;;;;5012599;28;20032;-76
2023/06/20 09:07:51;;;;;;;11.85;10.13;;;24.40;99.90;;;;;;5013170;28;20033;-76
2023/06/20 09:10:23;;;;;;;11.95;9.65;;;24.30;99.90;;;;;;5011811;28;20037;-76
2023/06/20 09:12:53;;;;;;;13.50;9.63;;;24.30;99.90;;;;;;5012905;28;20033;-76
2023/06/20 09:15:23;;;;;;;10.65;9.68;;;24.30;99.90;;;;;;5011137;28;20041;-75
2023/06/20 09:17:54;;;;;;;11.20;9.25;;;24.30;99.90;;;;;;5011552;28;20040;-76
2023/06/20 09:20:20;;;;;;;10.18;9.20;;;24.30;99.90;;;;;;5012499;28;20041;-74
2023/06/20 09:22:46;;;;;;;11.48;10.23;;;24.30;99.90;;;;;;5011528;28;20049;-74
2023/06/20 09:25:12;;;;;;;11.07;10.07;;;24.30;99.90;;;;;;5012460;28;20030;-74
2023/06/20 09:27:40;;;;;;;10.05;9.15;;;24.40;99.90;;;;;;5027578;28;20069;-77
2023/06/20 09:30:07;;;;;;;9.95;8.95;;;24.40;99.90;;;;;;5011020;28;20037;-74
2023/06/20 09:32:39;;;;;;;12.23;9.27;;;24.50;99.90;;;;;;4991595;28;20366;-74
2023/06/20 09:35:10;;;;;;;10.27;9.20;;;24.50;99.90;;;;;;5007962;28;20038;-74
2023/06/20 09:37:40;;;;;;;11.52;9.07;;;24.50;99.90;;;;;;5007888;28;20041;-74
2023/06/20 09:40:27;;;;;;;11.53;9.80;;;24.50;99.90;;;;;;4993658;28;20034;-73
2023/06/20 09:42:56;;;;;;;9.77;8.77;;;24.40;99.90;;;;;;4992652;28;20050;-74
2023/06/20 09:45:22;;;;;;;10.30;9.30;;;24.40;99.90;;;;;;4992211;28;20031;-73
2023/06/20 09:47:48;;;;;;;11.23;9.50;;;24.40;99.90;;;;;;4992478;28;20037;-73
2023/06/20 09:50:19;;;;;;;9.75;8.75;;;24.50;99.90;;;;;;4975306;28;20023;-74
2023/06/20 09:53:04;;;;;;;10.65;9.65;;;24.60;99.90;;;;;;4992778;28;20383;-74
2023/06/20 09:55:32;;;;;;;11.02;9.00;;;24.60;99.90;;;;;;5008688;28;20030;-73
2023/06/20 09:57:59;;;;;;;10.60;9.43;;;24.60;99.90;;;;;;5014341;28;20030;-74
2023/06/20 10:00:26;;;;;;;10.82;8.98;;;24.70;99.90;;;;;;5016644;28;20033;-74
2023/06/20 10:02:53;;;;;;;11.13;10.13;;;24.80;99.90;;;;;;5017591;28;20030;-74
2023/06/20 10:05:24;;;;;;;10.38;9.25;;;24.90;99.90;;;;;;5034132;28;20029;-74
2023/06/20 10:07:51;;;;;;;10.40;9.38;;;24.90;99.90;;;;;;5018993;28;20044;-74
2023/06/20 10:10:17;;;;;;;10.35;9.25;;;25.00;99.90;;;;;;5018498;28;20033;-74
2023/06/20 10:12:44;;;;;;;11.77;10.57;;;25.10;99.90;;;;;;5017753;28;20033;-74
2023/06/20 10:15:11;;;;;;;12.98;10.18;;;25.10;99.90;;;;;;5033244;28;20030;-74
2023/06/20 10:17:46;;;;;;;11.63;9.40;;;25.10;99.90;;;;;;4978669;28;20039;-74
2023/06/20 10:20:31;;;;;;;10.13;9.13;;;25.10;99.90;;;;;;4978790;28;20038;-74
2023/06/20 10:22:58;;;;;;;10.70;9.75;;;25.20;99.90;;;;;;5017608;28;20052;-74
2023/06/20 10:25:25;;;;;;;10.90;9.90;;;25.30;99.90;;;;;;5016906;28;20045;-74
2023/06/20 10:28:00;;;;;;;10.77;9.70;;;25.30;99.90;;;;;;5017495;28;20510;-74
2023/06/20 10:30:53;;;;;;;11.23;10.32;;;25.30;99.90;;;;;;5014193;28;20502;-74
2023/06/20 10:33:37;;;;;;;10.73;9.77;;;25.40;99.90;;;;;;4999073;28;20033;-74
2023/06/20 10:36:09;;;;;;;11.13;10.10;;;25.40;99.90;;;;;;4998772;28;20034;-74
2023/06/20 10:38:59;;;;;;;10.73;9.63;;;25.40;99.90;;;;;;5014070;28;20022;-74
2023/06/20 10:41:26;;;;;;;10.40;9.50;;;25.50;99.90;;;;;;4994960;28;20161;-74
2023/06/20 10:43:53;;;;;;;11.52;10.52;;;25.60;99.90;;;;;;4998805;28;20265;-74
2023/06/20 10:46:21;;;;;;;12.05;10.90;;;25.60;99.90;;;;;;5009228;28;20509;-75
2023/06/20 10:48:47;;;;;;;15.70;10.70;;;25.60;99.90;;;;;;5013907;28;20069;-75
2023/06/20 10:51:14;;;;;;;11.63;10.73;;;25.70;99.90;;;;;;5007240;28;20049;-75
2023/06/20 10:53:40;;;;;;;10.60;9.60;;;25.70;99.90;;;;;;5018284;28;20061;-75
2023/06/20 10:56:06;;;;;;;10.57;9.43;;;25.80;99.90;;;;;;5017959;28;20044;-74
2023/06/20 10:58:32;;;;;;;10.20;9.18;;;25.80;99.90;;;;;;5018172;28;20867;-74
2023/06/20 11:00:58;;;;;;;10.80;9.93;;;25.90;99.90;;;;;;5017569;28;20049;-74
2023/06/20 11:03:24;;;;;;;10.20;9.32;;;25.90;99.90;;;;;;5017128;28;20033;-74
2023/06/20 11:05:51;;;;;;;9.63;8.77;;;25.90;99.90;;;;;;5000383;28;20045;-75
2023/06/20 11:08:25;;;;;;;11.27;10.23;;;25.90;99.90;;;;;;5015625;28;20033;-74
2023/06/20 11:10:51;;;;;;;9.82;8.93;;;25.80;99.90;;;;;;5029895;28;20041;-74
2023/06/20 11:13:17;;;;;;;10.77;9.65;;;25.90;99.90;;;;;;5013619;28;20030;-74
2023/06/20 11:15:43;;;;;;;11.20;9.57;;;25.90;99.90;;;;;;4996623;28;20038;-75
2023/06/20 11:18:09;;;;;;;10.40;9.40;;;26.00;99.90;;;;;;5013879;28;20471;-74
2023/06/20 11:20:39;;;;;;;11.00;10.10;;;26.00;99.90;;;;;;5014581;28;20030;-74
2023/06/20 11:23:07;;;;;;;10.63;9.52;;;26.00;99.90;;;;;;5030149;28;20026;-75
2023/06/20 11:25:34;;;;;;;10.90;9.90;;;26.00;99.90;;;;;;5013412;28;20033;-74
2023/06/20 11:28:13;;;;;;;10.90;10.00;;;26.00;99.90;;;;;;5014657;28;20034;-75
2023/06/20 11:30:43;;;;;;;11.40;10.43;;;26.00;99.90;;;;;;5010821;28;20399;-74
2023/06/20 11:33:14;;;;;;;11.40;10.02;;;25.90;99.90;;;;;;5010536;28;20475;-75
2023/06/20 11:35:43;;;;;;;11.23;9.68;;;25.80;99.90;;;;;;5009526;28;20042;-75
2023/06/20 11:38:16;;;;;;;11.18;10.27;;;25.70;99.90;;;;;;4995038;28;20538;-74
2023/06/20 11:40:43;;;;;;;10.90;9.80;;;25.60;99.90;;;;;;4994803;28;20504;-74
2023/06/20 11:43:19;;;;;;;11.32;10.25;;;25.50;99.90;;;;;;5001269;28;20611;-75
2023/06/20 11:45:45;;;;;;;11.65;10.65;;;25.40;99.90;;;;;;4998491;28;20041;-75
2023/06/20 11:48:15;;;;;;;11.07;10.00;;;25.40;99.90;;;;;;5013084;28;20049;-75
2023/06/20 11:50:47;;;;;;;12.63;10.77;;;25.50;99.90;;;;;;5013102;28;20375;-74
2023/06/20 11:53:18;;;;;;;11.38;10.30;;;25.50;99.90;;;;;;5026214;28;20030;-75
2023/06/20 11:55:48;;;;;;;10.88;9.75;;;25.50;99.90;;;;;;5012829;28;20026;-74
2023/06/20 11:58:15;;;;;;;11.45;10.07;;;25.50;99.90;;;;;;5014336;28;20029;-75
2023/06/20 12:00:45;;;;;;;10.63;9.63;;;25.40;99.90;;;;;;5007978;28;20478;-75
2023/06/20 12:03:11;;;;;;;9.70;8.80;;;25.50;99.90;;;;;;4993584;28;20035;-75
2023/06/20 12:05:37;;;;;;;11.25;10.25;;;25.60;99.90;;;;;;4993310;28;20038;-75
2023/06/20 12:08:06;;;;;;;12.18;11.00;;;25.70;99.90;;;;;;5009679;28;20034;-75
2023/06/20 12:10:34;;;;;;;10.77;9.68;;;25.70;99.90;;;;;;5009079;28;20037;-75
2023/06/20 12:13:06;;;;;;;12.25;10.07;;;25.60;99.90;;;;;;5009050;28;20379;-75
2023/06/20 12:15:32;;;;;;;12.25;10.30;;;25.70;99.90;;;;;;5012574;28;20030;-75
2023/06/20 12:17:58;;;;;;;11.75;10.63;;;25.70;99.90;;;;;;5012809;28;20402;-75
2023/06/20 12:20:24;;;;;;;11.20;10.10;;;25.80;99.90;;;;;;5012494;28;20030;-74
2023/06/20 12:22:50;;;;;;;10.85;9.75;;;25.80;99.90;;;;;;5014069;28;20070;-75
2023/06/20 12:25:16;;;;;;;10.77;9.70;;;25.70;99.90;;;;;;5013497;28;20037;-75
2023/06/20 12:27:43;;;;;;;11.07;9.98;;;25.60;99.90;;;;;;5013773;28;20034;-75
2023/06/20 12:30:09;;;;;;;12.35;9.20;;;25.50;99.90;;;;;;5013426;28;20029;-75
2023/06/20 12:32:35;;;;;;;12.63;9.32;;;25.50;99.90;;;;;;5028984;28;20037;-74
2023/06/20 12:35:01;;;;;;;11.80;10.60;;;25.50;99.90;;;;;;5012577;28;20366;-75
2023/06/20 12:37:27;;;;;;;10.77;9.68;;;25.40;99.90;;;;;;5013368;28;20034;-74